createdAt,value
2019-05-25T00:01:32.911Z,49.55
2019-05-25T00:04:01.104Z,58.96
2019-05-25T00:06:29.285Z,52.66
2019-05-25T00:08:57.380Z,52.66
2019-05-25T00:11:25.527Z,58.09
2019-05-25T00:13:53.687Z,58.00
2019-05-25T00:16:21.861Z,67.74
2019-05-25T00:18:50.037Z,55.63
2019-05-25T00:21:18.189Z,54.96
2019-05-25T00:23:46.344Z,55.34
2019-05-25T00:26:14.629Z,53.61
2019-05-25T00:28:42.722Z,51.37
2019-05-25T00:31:10.893Z,50.78
2019-05-25T00:33:38.975Z,51.06
2019-05-25T00:36:07.231Z,60.99
2019-05-25T00:38:35.525Z,51.26
2019-05-25T00:41:03.637Z,50.53
2019-05-25T00:43:31.824Z,65.47
2019-05-25T00:46:00.047Z,68.56
2019-05-25T00:48:28.201Z,57.30
2019-05-25T00:50:56.310Z,54.54
2019-05-25T00:53:24.454Z,67.30
2019-05-25T00:55:52.542Z,69.84
2019-05-25T00:58:20.692Z,66.19
2019-05-25T01:00:48.995Z,69.31
2019-05-25T01:03:17.140Z,69.93
2019-05-25T01:05:45.295Z,64.06
2019-05-25T01:08:13.528Z,58.42
2019-05-25T01:10:41.695Z,70.38
2019-05-25T01:13:09.821Z,68.46
2019-05-25T01:15:38.061Z,61.97
2019-05-25T01:18:06.287Z,63.27
2019-05-25T01:20:34.410Z,59.54
2019-05-25T01:23:02.557Z,61.32
2019-05-25T01:25:30.694Z,68.43
2019-05-25T01:27:58.801Z,53.64
2019-05-25T01:30:26.940Z,53.02
2019-05-25T01:32:55.357Z,52.17
2019-05-25T01:35:23.463Z,51.73
2019-05-25T01:37:51.646Z,51.66
2019-05-25T01:40:20.177Z,51.67
2019-05-25T01:42:48.358Z,53.04
2019-05-25T01:45:16.639Z,63.85
2019-05-25T01:47:44.849Z,55.53
2019-05-25T01:50:13.170Z,70.26
2019-05-25T01:52:41.323Z,54.81
2019-05-25T01:55:09.919Z,58.26
2019-05-25T01:57:38.061Z,68.64
2019-05-25T02:00:08.938Z,53.16
2019-05-25T02:02:37.023Z,52.22
2019-05-25T02:05:06.025Z,52.07
2019-05-25T02:07:34.247Z,52.20
2019-05-25T02:10:02.380Z,54.09
2019-05-25T02:12:30.580Z,56.38
2019-05-25T02:14:58.852Z,52.19
2019-05-25T02:17:26.953Z,53.25
2019-05-25T02:19:55.080Z,52.86
2019-05-25T02:22:23.272Z,51.81
2019-05-25T02:24:51.448Z,51.42
2019-05-25T02:27:19.630Z,51.59
2019-05-25T02:29:47.760Z,51.41
2019-05-25T02:32:15.923Z,51.60
2019-05-25T02:34:44.122Z,51.42
2019-05-25T02:37:12.374Z,51.69
2019-05-25T02:39:40.644Z,51.74
2019-05-25T02:42:09.077Z,52.02
2019-05-25T02:44:37.219Z,51.63
2019-05-25T02:47:05.563Z,51.71
2019-05-25T02:49:33.756Z,51.86
2019-05-25T02:52:01.924Z,51.80
2019-05-25T02:54:30.122Z,51.95
2019-05-25T02:56:58.272Z,66.61
2019-05-25T02:59:26.374Z,68.51
2019-05-25T03:01:54.542Z,54.70
2019-05-25T03:04:22.678Z,53.25
2019-05-25T03:06:52.596Z,67.70
2019-05-25T03:09:21.716Z,66.71
2019-05-25T03:11:51.027Z,56.92
2019-05-25T03:14:19.372Z,54.49
2019-05-25T03:16:47.501Z,53.29
2019-05-25T03:19:15.640Z,63.66
2019-05-25T03:21:43.859Z,54.67
2019-05-25T03:24:11.990Z,54.39
2019-05-25T03:26:40.118Z,60.63
2019-05-25T03:29:08.290Z,68.65
2019-05-25T03:31:36.441Z,60.84
2019-05-25T03:34:04.617Z,73.62
2019-05-25T03:36:32.988Z,72.91
2019-05-25T03:39:02.043Z,73.57
2019-05-25T03:41:30.177Z,75.81
2019-05-25T03:43:58.387Z,75.97
2019-05-25T03:46:26.578Z,57.07
2019-05-25T03:48:54.665Z,75.72
2019-05-25T03:51:22.836Z,76.51
2019-05-25T03:53:50.950Z,75.67
2019-05-25T03:56:19.098Z,63.07
2019-05-25T03:58:47.219Z,76.04
2019-05-25T04:01:15.368Z,65.07
2019-05-25T04:03:43.661Z,53.14
2019-05-25T04:06:11.843Z,52.64
2019-05-25T04:08:40.019Z,70.62
2019-05-25T04:11:08.168Z,73.31
2019-05-25T04:13:36.439Z,57.09
2019-05-25T04:16:04.643Z,68.78
2019-05-25T04:18:32.779Z,57.46
2019-05-25T04:21:00.965Z,72.64
2019-05-25T04:23:29.101Z,66.62
2019-05-25T04:25:57.233Z,72.18
2019-05-25T04:28:25.429Z,69.78
2019-05-25T04:30:53.534Z,56.17
2019-05-25T04:33:21.673Z,68.75
2019-05-25T04:35:49.888Z,62.89
2019-05-25T04:38:17.986Z,68.70
2019-05-25T04:40:46.168Z,55.77
2019-05-25T04:43:14.478Z,52.82
2019-05-25T04:45:42.571Z,68.24
2019-05-25T04:48:10.819Z,53.73
2019-05-25T04:50:39.051Z,63.15
2019-05-25T04:53:07.209Z,60.33
2019-05-25T04:55:35.647Z,66.74
2019-05-25T04:58:03.887Z,68.24
2019-05-25T05:00:32.079Z,65.59
2019-05-25T05:05:35.690Z,68.29
2019-05-25T05:08:03.930Z,69.32
2019-05-25T05:10:32.004Z,69.62
2019-05-25T05:13:00.131Z,59.54
2019-05-25T05:15:28.247Z,69.07
2019-05-25T05:17:56.476Z,70.11
2019-05-25T05:20:24.670Z,69.54
2019-05-25T05:22:52.822Z,69.41
2019-05-25T05:25:20.941Z,69.71
2019-05-25T05:27:49.171Z,65.81
2019-05-25T05:30:18.718Z,69.80
2019-05-25T05:32:46.892Z,69.75
2019-05-25T05:35:15.162Z,69.65
2019-05-25T05:38:03.803Z,68.94
2019-05-25T05:40:33.137Z,68.79
2019-05-25T05:43:02.920Z,65.88
2019-05-25T05:45:52.879Z,68.74
2019-05-25T05:48:23.899Z,63.35
2019-05-25T05:50:56.877Z,60.75
2019-05-25T05:53:26.465Z,64.88
2019-05-25T05:55:54.602Z,67.55
2019-05-25T05:58:22.724Z,61.51
2019-05-25T06:00:50.909Z,63.60
2019-05-25T06:03:19.121Z,66.24
2019-05-25T06:05:47.298Z,66.20
2019-05-25T06:08:15.555Z,64.92
2019-05-25T06:10:43.830Z,63.75
2019-05-25T06:13:12.022Z,63.41
2019-05-25T06:15:40.184Z,55.98
2019-05-25T06:18:08.307Z,63.85
2019-05-25T06:20:36.422Z,60.18
2019-05-25T06:23:08.447Z,65.13
2019-05-25T06:25:34.539Z,58.87
2019-05-25T06:28:02.621Z,64.87
2019-05-25T06:30:30.830Z,58.84
2019-05-25T06:32:58.976Z,62.46
2019-05-25T06:35:27.090Z,64.32
2019-05-25T06:37:55.218Z,58.03
2019-05-25T06:40:23.340Z,65.24
2019-05-25T06:42:51.569Z,58.22
2019-05-25T06:45:19.853Z,61.40
2019-05-25T06:47:48.164Z,64.68
2019-05-25T06:50:16.496Z,66.66
2019-05-25T06:52:44.722Z,61.18
2019-05-25T06:55:13.066Z,66.52
2019-05-25T06:57:43.503Z,67.77
2019-05-25T07:00:11.672Z,61.43
2019-05-25T07:02:39.775Z,63.24
2019-05-25T07:05:08.151Z,64.43
2019-05-25T07:07:36.283Z,62.09
2019-05-25T07:10:04.874Z,60.57
2019-05-25T07:12:33.147Z,66.09
2019-05-25T07:15:01.281Z,63.11
2019-05-25T07:17:29.424Z,64.54
2019-05-25T07:19:57.604Z,59.17
2019-05-25T07:22:25.732Z,64.70
2019-05-25T07:24:53.870Z,64.26
2019-05-25T07:27:22.230Z,65.42
2019-05-25T07:29:50.342Z,66.24
2019-05-25T07:32:18.475Z,66.48
2019-05-25T07:34:46.585Z,65.70
2019-05-25T07:37:14.758Z,64.04
2019-05-25T07:39:43.037Z,63.97
2019-05-25T07:42:11.143Z,61.14
2019-05-25T07:44:39.316Z,65.88
2019-05-25T07:47:07.424Z,64.71
2019-05-25T07:49:35.544Z,63.86
2019-05-25T07:52:03.752Z,64.45
2019-05-25T07:54:32.083Z,66.25
2019-05-25T07:57:00.318Z,65.83
2019-05-25T07:59:28.615Z,62.57
2019-05-25T08:01:56.745Z,56.95
2019-05-25T08:04:24.906Z,61.15
2019-05-25T08:06:53.037Z,56.75
2019-05-25T08:09:21.227Z,57.38
2019-05-25T08:11:49.377Z,63.47
2019-05-25T08:14:17.569Z,63.19
2019-05-25T08:16:45.685Z,61.57
2019-05-25T08:19:13.799Z,61.11
2019-05-25T08:21:41.917Z,57.62
2019-05-25T08:24:10.051Z,58.52
2019-05-25T08:26:38.207Z,56.31
2019-05-25T08:29:06.360Z,60.14
2019-05-25T08:31:34.531Z,59.22
2019-05-25T08:34:04.503Z,61.35
2019-05-25T08:36:32.745Z,58.41
2019-05-25T08:39:00.978Z,59.94
2019-05-25T08:41:29.110Z,59.11
2019-05-25T08:43:57.289Z,55.99
2019-05-25T08:46:25.595Z,55.38
2019-05-25T08:48:53.937Z,59.25
2019-05-25T08:51:22.058Z,60.51
2019-05-25T08:53:50.275Z,60.22
2019-05-25T08:56:18.507Z,54.96
2019-05-25T08:58:48.663Z,52.17
2019-05-25T09:01:16.553Z,58.73
2019-05-25T09:03:44.745Z,57.18
2019-05-25T09:06:12.941Z,61.79
2019-05-25T09:08:41.134Z,59.53
2019-05-25T09:11:09.356Z,59.67
2019-05-25T09:13:56.627Z,61.42
2019-05-25T09:16:24.816Z,58.65
2019-05-25T09:18:53.330Z,60.46
2019-05-25T09:21:21.489Z,61.05
2019-05-25T09:23:49.658Z,61.46
2019-05-25T09:26:17.881Z,61.77
2019-05-25T09:28:46.080Z,58.65
2019-05-25T09:31:14.420Z,57.76
2019-05-25T09:33:42.525Z,58.62
2019-05-25T09:36:10.693Z,60.07
2019-05-25T09:38:38.897Z,60.76
2019-05-25T09:41:07.022Z,52.81
2019-05-25T09:43:35.140Z,57.40
2019-05-25T09:46:03.481Z,59.40
2019-05-25T09:48:31.703Z,55.45
2019-05-25T09:50:59.857Z,57.82
2019-05-25T09:53:28.087Z,53.68
2019-05-25T09:55:56.212Z,54.64
2019-05-25T09:58:24.358Z,55.41
2019-05-25T10:00:52.517Z,54.49
2019-05-25T10:03:20.679Z,56.04
2019-05-25T10:05:48.907Z,54.93
2019-05-25T10:08:17.510Z,55.88
2019-05-25T10:10:45.622Z,56.79
2019-05-25T10:13:13.802Z,53.31
2019-05-25T10:15:41.934Z,55.73
2019-05-25T10:18:10.062Z,53.05
2019-05-25T10:20:38.238Z,54.69
2019-05-25T10:23:06.408Z,53.78
2019-05-25T10:25:34.597Z,52.93
2019-05-25T10:28:02.756Z,52.95
2019-05-25T10:30:30.916Z,52.95
2019-05-25T10:32:59.058Z,51.83
2019-05-25T10:35:27.252Z,46.17
2019-05-25T10:37:55.417Z,46.17
2019-05-25T10:40:23.748Z,47.23
2019-05-25T10:42:51.915Z,47.90
2019-05-25T10:45:20.284Z,48.51
2019-05-25T10:47:48.499Z,47.66
2019-05-25T10:50:16.966Z,48.58
2019-05-25T10:52:45.256Z,53.64
2019-05-25T10:55:14.050Z,55.60
2019-05-25T10:57:42.284Z,52.40
2019-05-25T11:00:11.674Z,48.91
2019-05-25T11:02:39.826Z,52.35
2019-05-25T11:05:09.451Z,54.84
2019-05-25T11:07:37.737Z,53.67
2019-05-25T11:10:06.282Z,51.76
2019-05-25T11:12:34.722Z,51.62
2019-05-25T11:15:02.987Z,53.51
2019-05-25T11:17:31.240Z,50.32
2019-05-25T11:19:59.419Z,57.68
2019-05-25T11:22:27.566Z,52.57
2019-05-25T11:24:55.778Z,50.96
2019-05-25T11:27:23.946Z,45.46
2019-05-25T11:30:07.573Z,45.46
2019-05-25T11:32:22.142Z,46.04
2019-05-25T11:34:50.363Z,48.85
2019-05-25T11:37:18.459Z,53.62
2019-05-25T11:39:46.612Z,49.66
2019-05-25T11:42:14.817Z,48.69
2019-05-25T11:44:42.939Z,48.69
2019-05-25T11:47:11.157Z,46.89
2019-05-25T11:49:39.333Z,50.55
2019-05-25T11:52:07.444Z,46.22
2019-05-25T11:54:35.715Z,49.91
2019-05-25T11:57:03.864Z,47.13
2019-05-25T11:59:32.046Z,49.82
2019-05-25T12:02:00.302Z,40.03
2019-05-25T12:04:28.393Z,43.59
2019-05-25T12:06:56.571Z,50.39
2019-05-25T12:09:24.827Z,41.86
2019-05-25T12:11:53.097Z,46.33
2019-05-25T12:14:21.271Z,47.18
2019-05-25T12:16:49.589Z,41.51
2019-05-25T12:19:17.905Z,41.92
2019-05-25T12:21:46.008Z,38.25
2019-05-25T12:24:14.221Z,45.21
2019-05-25T12:26:42.383Z,41.67
2019-05-25T12:29:10.574Z,43.24
2019-05-25T12:31:38.788Z,43.70
2019-05-25T12:34:07.029Z,45.02
2019-05-25T12:36:35.213Z,48.58
2019-05-25T12:39:04.186Z,40.75
2019-05-25T12:41:32.440Z,36.41
2019-05-25T12:44:00.747Z,38.88
2019-05-25T12:46:29.089Z,38.18
2019-05-25T12:48:57.337Z,40.00
2019-05-25T12:51:25.589Z,49.30
2019-05-25T12:53:53.729Z,41.39
2019-05-25T12:56:22.184Z,51.26
2019-05-25T12:58:50.433Z,43.10
2019-05-25T13:01:18.678Z,50.15
2019-05-25T13:03:47.093Z,43.51
2019-05-25T13:06:18.195Z,46.79
2019-05-25T13:08:44.408Z,44.40
2019-05-25T13:11:12.585Z,38.31
2019-05-25T13:13:40.732Z,40.29
2019-05-25T13:16:09.043Z,39.31
2019-05-25T13:18:37.273Z,40.28
2019-05-25T13:21:05.686Z,45.47
2019-05-25T13:23:33.869Z,43.99
2019-05-25T13:26:02.056Z,46.70
2019-05-25T13:28:30.228Z,43.56
2019-05-25T13:31:10.822Z,40.30
2019-05-25T13:33:28.358Z,44.11
2019-05-25T13:35:56.498Z,45.83
2019-05-25T13:38:24.686Z,42.75
2019-05-25T13:40:52.898Z,40.03
2019-05-25T13:43:21.159Z,41.15
2019-05-25T13:45:49.388Z,44.93
2019-05-25T13:48:17.545Z,45.69
2019-05-25T13:50:45.964Z,45.05
2019-05-25T13:53:14.080Z,49.96
2019-05-25T13:55:42.333Z,42.97
2019-05-25T13:58:10.480Z,45.48
2019-05-25T14:00:38.693Z,43.57
2019-05-25T14:03:06.942Z,49.10
2019-05-25T14:05:35.153Z,44.89
2019-05-25T14:08:03.351Z,44.41
2019-05-25T14:10:31.564Z,44.65
2019-05-25T14:13:01.830Z,42.29
2019-05-25T14:15:29.673Z,45.47
2019-05-25T14:17:58.279Z,41.11
2019-05-25T14:20:27.088Z,45.78
2019-05-25T14:22:55.290Z,39.65
2019-05-25T14:25:23.505Z,39.06
2019-05-25T14:27:51.685Z,40.46
2019-05-25T14:30:19.900Z,40.27
2019-05-25T14:32:48.036Z,39.71
2019-05-25T14:35:16.205Z,37.27
2019-05-25T14:37:44.564Z,40.41
2019-05-25T14:40:13.766Z,44.45
2019-05-25T14:42:41.928Z,46.13
2019-05-25T14:45:10.757Z,42.77
2019-05-25T14:47:39.017Z,45.94
2019-05-25T14:50:07.681Z,40.54
2019-05-25T14:52:35.945Z,44.63
2019-05-25T14:55:04.354Z,38.65
2019-05-25T14:57:32.601Z,37.88
2019-05-25T15:00:00.890Z,39.08
2019-05-25T15:02:29.095Z,41.84
2019-05-25T15:04:57.215Z,35.57
2019-05-25T15:07:25.450Z,39.63
2019-05-25T15:09:53.643Z,39.23
2019-05-25T15:12:21.970Z,40.83
2019-05-25T15:14:50.137Z,43.45
2019-05-25T15:17:18.401Z,34.85
2019-05-25T15:19:46.555Z,36.94
2019-05-25T15:22:14.900Z,39.06
2019-05-25T15:24:43.183Z,39.56
2019-05-25T15:27:11.480Z,37.68
2019-05-25T15:29:39.717Z,37.67
2019-05-25T15:32:19.466Z,35.85
2019-05-25T15:34:37.964Z,41.87
2019-05-25T15:37:06.352Z,37.96
2019-05-25T15:39:34.524Z,40.28
2019-05-25T15:42:02.671Z,33.33
2019-05-25T15:44:30.959Z,36.64
2019-05-25T15:46:59.308Z,32.66
2019-05-25T15:49:33.472Z,36.95
2019-05-25T15:51:57.472Z,34.83
2019-05-25T15:54:25.626Z,38.78
2019-05-25T15:56:53.829Z,32.74
2019-05-25T15:59:23.623Z,43.21
2019-05-25T16:01:52.028Z,41.66
2019-05-25T16:04:20.356Z,38.93
2019-05-25T16:06:50.616Z,39.02
2019-05-25T16:09:18.892Z,45.22
2019-05-25T16:11:47.196Z,45.36
2019-05-25T16:14:15.391Z,40.46
2019-05-25T16:16:43.595Z,39.90
2019-05-25T16:19:11.768Z,39.41
2019-05-25T16:21:39.953Z,37.75
2019-05-25T16:24:08.404Z,40.31
2019-05-25T16:26:45.661Z,40.77
2019-05-25T16:29:05.532Z,45.44
2019-05-25T16:31:33.729Z,39.44
2019-05-25T16:34:01.864Z,44.39
2019-05-25T16:36:30.128Z,44.21
2019-05-25T16:38:58.470Z,39.93
2019-05-25T16:41:26.669Z,37.92
2019-05-25T16:43:54.925Z,44.43
2019-05-25T16:46:23.127Z,39.30
2019-05-25T16:48:51.383Z,43.98
2019-05-25T16:51:19.606Z,41.13
2019-05-25T16:53:47.751Z,41.77
2019-05-25T16:56:15.954Z,39.32
2019-05-25T16:58:44.191Z,40.04
2019-05-25T17:01:12.457Z,42.30
2019-05-25T17:03:40.638Z,43.85
2019-05-25T17:06:08.765Z,43.45
2019-05-25T17:08:36.970Z,41.06
2019-05-25T17:11:05.248Z,41.51
2019-05-25T17:13:33.523Z,41.36
2019-05-25T17:16:01.694Z,40.25
2019-05-25T17:18:29.970Z,40.55
2019-05-25T17:20:58.167Z,39.56
2019-05-25T17:23:26.498Z,39.41
2019-05-25T17:25:54.740Z,41.18
2019-05-25T17:28:22.937Z,38.59
2019-05-25T17:30:51.136Z,40.71
2019-05-25T17:33:19.330Z,36.63
2019-05-25T17:35:47.872Z,39.70
2019-05-25T17:38:16.121Z,38.76
2019-05-25T17:40:44.360Z,38.96
2019-05-25T17:43:12.573Z,41.50
2019-05-25T17:45:40.719Z,41.85
2019-05-25T17:48:08.968Z,37.84
2019-05-25T17:50:37.334Z,42.40
2019-05-25T17:53:05.648Z,40.21
2019-05-25T17:55:33.844Z,38.76
2019-05-25T17:58:02.349Z,35.44
2019-05-25T18:00:39.297Z,39.62
2019-05-25T18:03:07.502Z,38.43
2019-05-25T18:05:35.766Z,38.24
2019-05-25T18:08:04.288Z,38.22
2019-05-25T18:10:32.538Z,38.24
2019-05-25T18:13:01.936Z,38.26
2019-05-25T18:15:30.098Z,38.31
2019-05-25T18:17:58.395Z,38.33
2019-05-25T18:20:26.558Z,38.83
2019-05-25T18:22:54.826Z,38.69
2019-05-25T18:25:22.956Z,44.30
2019-05-25T18:27:51.319Z,40.84
2019-05-25T18:30:20.556Z,39.95
2019-05-25T18:32:48.950Z,39.71
2019-05-25T18:35:17.324Z,40.82
2019-05-25T18:37:45.530Z,41.47
2019-05-25T18:40:13.974Z,40.50
2019-05-25T18:42:42.161Z,42.32
2019-05-25T18:45:10.341Z,41.58
2019-05-25T18:47:38.542Z,41.08
2019-05-25T18:50:07.330Z,41.00
2019-05-25T18:52:35.669Z,41.13
2019-05-25T18:55:04.027Z,41.75
2019-05-25T18:57:32.262Z,42.55
2019-05-25T19:00:00.524Z,42.10
2019-05-25T19:02:28.852Z,42.16
2019-05-25T19:04:59.804Z,45.92
2019-05-25T19:07:26.044Z,47.55
2019-05-25T19:09:54.320Z,44.67
2019-05-25T19:12:22.511Z,44.22
2019-05-25T19:14:50.737Z,44.18
2019-05-25T19:17:18.952Z,43.58
2019-05-25T19:19:47.208Z,43.48
2019-05-25T19:22:15.465Z,44.33
2019-05-25T19:24:43.663Z,44.32
2019-05-25T19:27:12.067Z,45.70
2019-05-25T19:29:40.331Z,50.62
2019-05-25T19:32:08.586Z,45.74
2019-05-25T19:34:36.757Z,46.82
2019-05-25T19:37:04.967Z,46.51
2019-05-25T19:39:33.158Z,47.85
2019-05-25T19:42:01.341Z,46.78
2019-05-25T19:44:29.530Z,46.62
2019-05-25T19:46:57.804Z,46.65
2019-05-25T19:49:26.163Z,49.32
2019-05-25T19:51:54.309Z,49.32
2019-05-25T19:54:22.561Z,49.16
2019-05-25T19:56:50.831Z,48.20
2019-05-25T19:59:19.334Z,47.58
2019-05-25T20:01:47.521Z,47.70
2019-05-25T20:04:15.794Z,50.46
2019-05-25T20:06:43.939Z,48.92
2019-05-25T20:09:12.122Z,48.49
2019-05-25T20:11:40.309Z,48.08
2019-05-25T20:14:08.585Z,48.04
2019-05-25T20:16:36.939Z,48.13
2019-05-25T20:19:05.277Z,48.16
2019-05-25T20:21:33.538Z,49.17
2019-05-25T20:24:01.690Z,48.93
2019-05-25T20:26:29.856Z,48.64
2019-05-25T20:28:58.053Z,48.65
2019-05-25T20:31:26.751Z,48.84
2019-05-25T20:33:54.912Z,49.24
2019-05-25T20:36:23.133Z,49.21
2019-05-25T20:38:51.371Z,49.53
2019-05-25T20:41:19.628Z,49.47
2019-05-25T20:43:47.819Z,49.53
2019-05-25T20:46:15.996Z,49.84
2019-05-25T20:48:44.214Z,50.41
2019-05-25T20:51:12.332Z,50.29
2019-05-25T20:53:40.540Z,49.91
2019-05-25T20:56:08.731Z,50.08
2019-05-25T20:58:39.122Z,50.28
2019-05-25T21:01:06.772Z,57.43
2019-05-25T21:03:34.953Z,50.77
2019-05-25T21:06:03.180Z,50.52
2019-05-25T21:08:31.356Z,50.45
2019-05-25T21:10:59.608Z,50.41
2019-05-25T21:13:27.823Z,50.60
2019-05-25T21:15:56.348Z,50.71
2019-05-25T21:18:24.494Z,50.80
2019-05-25T21:20:52.716Z,50.92
2019-05-25T21:23:20.894Z,51.11
2019-05-25T21:25:49.097Z,51.17
2019-05-25T21:28:17.353Z,51.03
2019-05-25T21:30:45.544Z,51.12
2019-05-25T21:33:13.763Z,51.25
2019-05-25T21:35:41.978Z,51.39
2019-05-25T21:38:10.159Z,51.44
2019-05-25T21:40:38.373Z,51.69
2019-05-25T21:43:06.571Z,51.52
2019-05-25T21:45:34.805Z,51.55
2019-05-25T21:48:02.985Z,51.53
2019-05-25T21:50:31.272Z,51.48
2019-05-25T21:53:01.635Z,51.66
2019-05-25T21:55:29.522Z,51.64
2019-05-25T21:57:57.706Z,51.77
2019-05-25T22:00:28.122Z,51.84
2019-05-25T22:03:02.132Z,51.95
2019-05-25T22:05:31.055Z,52.19
2019-05-25T22:07:59.311Z,52.00
2019-05-25T22:10:27.420Z,51.96
2019-05-25T22:12:55.606Z,51.95
2019-05-25T22:15:23.742Z,51.96
2019-05-25T22:17:52.198Z,51.97
2019-05-25T22:20:20.987Z,52.07
2019-05-25T22:22:49.179Z,52.09
2019-05-25T22:25:17.438Z,52.07
2019-05-25T22:27:45.726Z,52.07
2019-05-25T22:30:14.343Z,52.03
2019-05-25T22:32:43.256Z,52.08
2019-05-25T22:35:11.734Z,59.82
2019-05-25T22:37:39.890Z,53.70
2019-05-25T22:40:08.353Z,53.03
2019-05-25T22:42:36.502Z,53.20
2019-05-25T22:45:05.105Z,52.39
2019-05-25T22:47:33.297Z,62.06
2019-05-25T22:50:01.398Z,52.77
2019-05-25T22:52:29.618Z,52.43
2019-05-25T22:54:57.730Z,52.73
2019-05-25T22:57:25.835Z,52.48
2019-05-25T22:59:54.020Z,52.45
2019-05-25T23:02:22.156Z,52.43
2019-05-25T23:04:50.294Z,52.32
2019-05-25T23:07:18.422Z,52.41
2019-05-25T23:09:46.565Z,52.47
2019-05-25T23:12:16.468Z,52.54
2019-05-25T23:14:44.647Z,52.48
2019-05-25T23:17:12.887Z,52.25
2019-05-25T23:19:40.994Z,52.33
2019-05-25T23:22:09.165Z,52.41
2019-05-25T23:24:37.413Z,52.41
2019-05-25T23:27:05.543Z,52.46
2019-05-25T23:29:33.653Z,52.33
2019-05-25T23:32:01.837Z,52.29
2019-05-25T23:34:30.568Z,52.35
2019-05-25T23:37:13.563Z,52.42
2019-05-25T23:39:29.051Z,52.42
2019-05-25T23:41:57.691Z,52.87
2019-05-25T23:44:26.139Z,52.49
2019-05-25T23:46:54.938Z,53.51
2019-05-25T23:49:23.078Z,56.63
2019-05-25T23:51:51.499Z,58.21
2019-05-25T23:54:19.883Z,53.46
2019-05-25T23:56:48.086Z,53.19
2019-05-25T23:59:16.327Z,56.60
